Time;durP1;ratioP1;P1;durP2;ratioP2;P2;SDS_P1;SDS_P2;PMS_P1;PMS_P2;Temp;Humidity;BMP_temperature;BMP_pressure;BME280_temperature;BME280_humidity;BME280_pressure;Samples;Min_cycle;Max_cycle;Signal;HPM_P1;HPM_P2
2021/07/23 00:01:16;;;;;;;10.53;6.33;;;17.50;99.90;;;;;;5035021;28;20544;-70
2021/07/23 00:03:42;;;;;;;7.83;5.77;;;17.50;99.90;;;;;;5035122;28;20539;-70
2021/07/23 00:06:07;;;;;;;10.00;6.33;;;17.50;99.90;;;;;;5034918;28;20580;-70
2021/07/23 00:08:33;;;;;;;6.47;5.80;;;17.40;99.90;;;;;;5034895;28;20152;-70
2021/07/23 00:10:58;;;;;;;6.53;5.83;;;17.40;99.90;;;;;;5034723;28;20161;-70
2021/07/23 00:13:24;;;;;;;6.43;5.23;;;17.40;99.90;;;;;;5024683;28;20194;-70
2021/07/23 00:15:49;;;;;;;11.50;7.03;;;17.30;99.90;;;;;;5034756;28;20204;-70
2021/07/23 00:18:16;;;;;;;7.30;5.60;;;17.30;99.90;;;;;;5035078;28;20164;-70
2021/07/23 00:20:42;;;;;;;7.80;6.57;;;17.20;99.90;;;;;;5034464;28;20441;-70
2021/07/23 00:23:07;;;;;;;11.03;6.03;;;17.20;99.90;;;;;;5034768;28;20403;-70
2021/07/23 00:25:35;;;;;;;6.03;5.43;;;17.20;99.90;;;;;;5034544;28;20160;-70
2021/07/23 00:28:01;;;;;;;6.87;5.83;;;17.20;99.90;;;;;;5034490;28;20157;-70
2021/07/23 00:30:27;;;;;;;6.57;5.87;;;17.10;99.90;;;;;;5032631;28;20446;-70
2021/07/23 00:32:52;;;;;;;8.47;6.50;;;17.10;99.90;;;;;;5034245;28;20314;-70
2021/07/23 00:35:18;;;;;;;6.90;5.90;;;17.10;99.90;;;;;;5034319;28;20168;-70
2021/07/23 00:37:43;;;;;;;7.17;5.73;;;17.00;99.90;;;;;;5034310;28;20164;-70
2021/07/23 00:40:09;;;;;;;8.30;5.73;;;17.00;99.90;;;;;;5034192;28;20180;-70
2021/07/23 00:42:39;;;;;;;8.63;6.93;;;16.90;99.90;;;;;;5029826;28;20227;-70
2021/07/23 00:45:05;;;;;;;12.30;5.87;;;16.90;99.90;;;;;;5014345;28;20165;-70
2021/07/23 00:47:31;;;;;;;7.23;5.80;;;16.90;99.90;;;;;;5022020;28;20469;-70
2021/07/23 00:49:57;;;;;;;7.53;6.10;;;16.80;99.90;;;;;;5034146;28;20408;-70
2021/07/23 00:52:23;;;;;;;9.70;5.90;;;16.80;99.90;;;;;;5034005;28;20499;-70
2021/07/23 00:54:49;;;;;;;7.37;6.60;;;16.80;99.90;;;;;;5033621;28;20526;-70
2021/07/23 00:57:16;;;;;;;9.80;6.70;;;16.80;99.90;;;;;;5033959;28;20650;-70
2021/07/23 00:59:42;;;;;;;13.03;7.60;;;16.70;99.90;;;;;;5034364;28;20192;-70
2021/07/23 01:02:08;;;;;;;7.20;6.10;;;16.70;99.90;;;;;;5034071;28;20498;-70
2021/07/23 01:04:34;;;;;;;7.03;5.30;;;16.70;99.90;;;;;;5032356;28;20458;-70
2021/07/23 01:07:01;;;;;;;7.67;6.27;;;16.60;99.90;;;;;;5033593;28;20412;-70
2021/07/23 01:09:26;;;;;;;8.00;6.60;;;16.60;99.90;;;;;;5033644;28;20431;-70
2021/07/23 01:11:52;;;;;;;5.87;5.27;;;16.60;99.90;;;;;;5033752;28;20458;-70
2021/07/23 01:14:18;;;;;;;8.23;6.40;;;16.50;99.90;;;;;;5002850;28;20249;-70
2021/07/23 01:16:44;;;;;;;8.20;6.27;;;16.50;99.90;;;;;;4994451;28;20213;-70
2021/07/23 01:19:10;;;;;;;8.27;6.87;;;16.50;99.90;;;;;;4994187;28;20153;-70
2021/07/23 01:21:39;;;;;;;9.70;7.60;;;16.50;99.90;;;;;;5004850;28;20416;-70
2021/07/23 01:24:05;;;;;;;7.30;6.30;;;16.40;99.90;;;;;;5013674;28;20403;-70
2021/07/23 01:26:31;;;;;;;9.67;6.70;;;16.40;99.90;;;;;;5013694;28;20397;-70
2021/07/23 01:28:57;;;;;;;9.47;6.47;;;16.40;99.90;;;;;;5013424;28;20162;-70
2021/07/23 01:31:22;;;;;;;8.00;6.53;;;16.40;99.90;;;;;;5013682;28;20397;-70
2021/07/23 01:33:48;;;;;;;10.10;7.40;;;16.40;99.90;;;;;;5013321;28;20624;-70
2021/07/23 01:36:13;;;;;;;7.40;6.17;;;16.40;99.90;;;;;;5013594;28;20157;-70
2021/07/23 01:38:41;;;;;;;8.93;6.27;;;16.30;99.90;;;;;;5014521;28;20169;-70
2021/07/23 01:41:07;;;;;;;8.20;6.50;;;16.30;99.90;;;;;;5013350;28;20185;-70
2021/07/23 01:43:33;;;;;;;5.57;4.80;;;16.20;99.90;;;;;;5012778;28;20827;-70
2021/07/23 01:45:59;;;;;;;8.33;5.57;;;16.20;99.90;;;;;;5013260;28;20173;-70
2021/07/23 01:48:25;;;;;;;8.20;6.67;;;16.20;99.90;;;;;;5013309;28;20395;-70
2021/07/23 01:50:51;;;;;;;9.50;6.67;;;16.20;99.90;;;;;;5013273;28;20401;-70
2021/07/23 01:53:16;;;;;;;7.10;6.27;;;16.10;99.90;;;;;;5013132;28;20189;-70
2021/07/23 01:55:43;;;;;;;9.83;6.90;;;16.10;99.90;;;;;;5014270;28;20176;-70
2021/07/23 01:58:10;;;;;;;7.10;6.30;;;16.10;99.90;;;;;;5013052;28;20149;-70
2021/07/23 02:00:36;;;;;;;7.93;5.77;;;16.00;99.90;;;;;;5013263;28;20396;-70
2021/07/23 02:03:02;;;;;;;7.83;6.00;;;16.00;99.90;;;;;;5013039;28;20397;-70
2021/07/23 02:05:27;;;;;;;8.27;6.57;;;16.00;99.90;;;;;;5013010;28;20165;-70
2021/07/23 02:07:53;;;;;;;7.37;5.50;;;16.00;99.90;;;;;;5012783;28;20176;-70
2021/07/23 02:10:18;;;;;;;7.10;6.37;;;15.90;99.90;;;;;;5012884;28;20165;-70
2021/07/23 02:12:44;;;;;;;7.70;6.43;;;15.90;99.90;;;;;;5011192;28;20203;-70
2021/07/23 02:15:10;;;;;;;7.03;5.73;;;15.80;99.90;;;;;;4993351;28;20165;-70
2021/07/23 02:17:35;;;;;;;7.40;5.80;;;15.80;99.90;;;;;;4993323;28;20166;-70
2021/07/23 02:20:01;;;;;;;7.00;5.93;;;15.80;99.90;;;;;;4993139;28;20456;-70
2021/07/23 02:22:26;;;;;;;8.77;6.20;;;15.80;99.90;;;;;;4993148;28;20253;-70
2021/07/23 02:24:52;;;;;;;7.80;6.70;;;15.80;99.90;;;;;;4993087;28;20208;-70
2021/07/23 02:27:17;;;;;;;8.53;6.33;;;15.80;99.90;;;;;;4993074;28;20158;-70
2021/07/23 02:29:43;;;;;;;6.70;5.50;;;15.70;99.90;;;;;;5012843;28;20195;-70
2021/07/23 02:32:08;;;;;;;7.83;6.10;;;15.70;99.90;;;;;;5032648;28;20165;-70
2021/07/23 02:34:34;;;;;;;7.10;6.07;;;15.70;99.90;;;;;;5032189;28;20300;-70
2021/07/23 02:37:00;;;;;;;9.33;7.20;;;15.70;99.90;;;;;;5032323;28;20164;-70
2021/07/23 02:39:25;;;;;;;10.20;7.37;;;15.70;99.90;;;;;;5032263;28;20407;-70
2021/07/23 02:41:51;;;;;;;9.30;6.50;;;15.60;99.90;;;;;;5032873;28;20153;-69
2021/07/23 02:44:17;;;;;;;9.73;6.10;;;15.60;99.90;;;;;;5022278;28;20262;-69
2021/07/23 02:46:43;;;;;;;9.17;6.87;;;15.60;99.90;;;;;;5010581;28;20435;-69
2021/07/23 02:49:09;;;;;;;7.50;6.10;;;15.60;99.90;;;;;;5012582;28;20736;-69
2021/07/23 02:51:34;;;;;;;10.30;6.73;;;15.60;99.90;;;;;;5012545;28;20186;-70
2021/07/23 02:54:00;;;;;;;7.67;6.67;;;15.60;99.90;;;;;;5012979;28;20191;-69
2021/07/23 02:56:26;;;;;;;9.37;6.30;;;15.60;99.90;;;;;;5015858;28;20241;-69
2021/07/23 02:58:51;;;;;;;9.60;6.70;;;15.50;99.90;;;;;;5016397;28;20193;-69
2021/07/23 03:01:17;;;;;;;9.13;7.20;;;15.50;99.90;;;;;;5016405;28;20181;-70
2021/07/23 03:03:43;;;;;;;7.03;6.03;;;15.50;99.90;;;;;;5017456;28;20181;-69
2021/07/23 03:06:08;;;;;;;7.37;6.57;;;15.50;99.90;;;;;;5016273;28;20162;-69
2021/07/23 03:08:34;;;;;;;7.40;6.10;;;15.50;99.90;;;;;;5016157;28;20174;-70
2021/07/23 03:11:02;;;;;;;8.67;6.50;;;15.50;99.90;;;;;;5016102;28;20580;-70
2021/07/23 03:13:27;;;;;;;7.50;6.30;;;15.40;99.90;;;;;;5013503;28;20251;-69
2021/07/23 03:15:53;;;;;;;7.03;5.70;;;15.40;99.90;;;;;;4996591;28;20401;-70
2021/07/23 03:18:19;;;;;;;8.97;6.30;;;15.40;99.90;;;;;;4996420;28;20162;-70
2021/07/23 03:20:44;;;;;;;9.00;6.50;;;15.40;99.90;;;;;;5008454;28;20635;-70
2021/07/23 03:23:10;;;;;;;7.43;6.20;;;15.40;99.90;;;;;;5015761;28;20164;-70
2021/07/23 03:25:36;;;;;;;10.20;6.70;;;15.30;99.90;;;;;;5015953;28;20172;-70
2021/07/23 03:28:02;;;;;;;9.60;7.27;;;15.30;99.90;;;;;;5015853;28;20692;-70
2021/07/23 03:30:27;;;;;;;11.47;7.83;;;15.30;99.90;;;;;;5016005;28;20392;-69
2021/07/23 03:32:53;;;;;;;12.20;7.13;;;15.30;99.90;;;;;;5015608;28;20725;-69
2021/07/23 03:35:19;;;;;;;7.60;6.60;;;15.30;99.90;;;;;;5015770;28;20184;-69
2021/07/23 03:37:45;;;;;;;9.23;7.70;;;15.30;99.90;;;;;;5016767;28;20422;-70
2021/07/23 03:40:10;;;;;;;9.60;7.60;;;15.30;99.90;;;;;;5015390;28;20182;-70
2021/07/23 03:42:36;;;;;;;7.73;6.93;;;15.30;99.90;;;;;;5015720;28;20166;-69
2021/07/23 03:45:02;;;;;;;8.53;6.53;;;15.20;99.90;;;;;;5015606;28;20224;-70
2021/07/23 03:47:28;;;;;;;7.07;6.30;;;15.20;99.90;;;;;;4995881;28;20192;-70
2021/07/23 03:49:53;;;;;;;7.70;6.57;;;15.20;99.90;;;;;;4995753;28;20455;-70
2021/07/23 03:52:19;;;;;;;8.73;6.97;;;15.20;99.90;;;;;;4996004;28;20643;-70
2021/07/23 03:54:44;;;;;;;8.57;6.90;;;15.20;99.90;;;;;;5007497;28;20205;-70
2021/07/23 03:57:10;;;;;;;9.33;7.87;;;15.20;99.90;;;;;;5015438;28;20639;-69
2021/07/23 03:59:35;;;;;;;8.10;7.30;;;15.20;99.90;;;;;;5015201;28;20689;-69
2021/07/23 04:02:02;;;;;;;8.87;6.37;;;15.10;99.90;;;;;;5015261;28;20161;-70
2021/07/23 04:04:27;;;;;;;7.97;6.73;;;15.10;99.90;;;;;;5015248;28;20162;-70
2021/07/23 04:06:56;;;;;;;7.03;6.20;;;15.10;99.90;;;;;;5014605;28;20799;-70
2021/07/23 04:09:21;;;;;;;13.57;6.63;;;15.10;99.90;;;;;;5015322;28;20276;-70
2021/07/23 04:11:50;;;;;;;8.27;6.23;;;15.00;99.90;;;;;;5017177;28;20467;-70
2021/07/23 04:14:16;;;;;;;7.03;6.33;;;15.00;99.90;;;;;;5006268;28;20547;-70
2021/07/23 04:16:41;;;;;;;16.33;7.30;;;15.10;99.90;;;;;;4995622;28;20437;-70
2021/07/23 04:19:07;;;;;;;7.67;6.87;;;15.10;99.90;;;;;;4995332;28;20428;-70
2021/07/23 04:21:32;;;;;;;10.67;7.77;;;15.00;99.90;;;;;;4995470;28;20254;-70
2021/07/23 04:23:59;;;;;;;7.90;6.13;;;15.10;99.90;;;;;;5005660;28;20239;-70
2021/07/23 04:26:25;;;;;;;8.87;7.30;;;15.10;99.90;;;;;;5035337;28;20192;-70
2021/07/23 04:28:50;;;;;;;7.53;6.03;;;15.10;99.90;;;;;;5025187;28;20448;-70
2021/07/23 04:31:16;;;;;;;19.17;8.30;;;15.00;99.90;;;;;;5012175;28;20211;-70
2021/07/23 04:33:41;;;;;;;10.63;6.90;;;15.10;99.90;;;;;;5014493;28;20267;-70
2021/07/23 04:36:07;;;;;;;10.77;7.30;;;15.10;99.90;;;;;;5014368;28;20154;-70
2021/07/23 04:38:32;;;;;;;8.47;7.17;;;15.10;99.90;;;;;;5014734;28;20216;-70
2021/07/23 04:40:58;;;;;;;7.60;6.60;;;15.10;99.90;;;;;;5014977;28;20165;-70
2021/07/23 04:43:23;;;;;;;8.73;7.40;;;15.10;99.90;;;;;;5014703;28;20645;-70
2021/07/23 04:45:49;;;;;;;8.83;7.67;;;15.10;99.90;;;;;;5017928;28;20189;-70
2021/07/23 04:48:14;;;;;;;9.00;7.20;;;15.10;99.90;;;;;;5014414;28;20161;-70
2021/07/23 04:50:40;;;;;;;7.77;6.67;;;15.10;99.90;;;;;;5014111;28;20161;-70
2021/07/23 04:53:05;;;;;;;9.13;7.50;;;15.10;99.90;;;;;;5014265;28;20224;-70
2021/07/23 04:55:31;;;;;;;9.93;7.43;;;15.10;99.90;;;;;;5014457;28;20228;-70
2021/07/23 04:57:57;;;;;;;9.50;7.50;;;15.20;99.90;;;;;;5014122;28;20622;-70
2021/07/23 05:00:22;;;;;;;10.00;8.57;;;15.20;99.90;;;;;;5014142;28;20319;-70
2021/07/23 05:02:57;;;;;;;11.43;7.53;;;15.20;99.90;;;;;;5015392;28;20267;-70
2021/07/23 05:05:23;;;;;;;20.70;8.20;;;15.20;99.90;;;;;;5013948;28;20161;-70
2021/07/23 05:07:49;;;;;;;13.43;8.13;;;15.20;99.90;;;;;;5014108;28;20397;-70
2021/07/23 05:10:15;;;;;;;9.50;7.03;;;15.20;99.90;;;;;;5014963;28;20388;-70
2021/07/23 05:12:41;;;;;;;14.43;8.93;;;15.30;99.90;;;;;;5013573;28;20957;-70
2021/07/23 05:15:08;;;;;;;12.80;8.90;;;15.30;99.90;;;;;;5010175;28;20194;-70
2021/07/23 05:17:35;;;;;;;9.90;8.43;;;15.30;99.90;;;;;;5003581;28;20161;-70
2021/07/23 05:20:02;;;;;;;12.90;9.10;;;15.30;99.90;;;;;;5020525;28;20411;-70
2021/07/23 05:22:28;;;;;;;12.90;8.83;;;15.40;99.90;;;;;;5035501;28;20402;-70
2021/07/23 05:24:56;;;;;;;11.30;8.10;;;15.40;99.90;;;;;;5033814;28;20407;-70
2021/07/23 05:27:21;;;;;;;13.97;8.80;;;15.50;99.90;;;;;;5033189;28;20461;-70
2021/07/23 05:29:47;;;;;;;9.00;7.87;;;15.50;99.90;;;;;;5033568;28;20396;-70
2021/07/23 05:32:12;;;;;;;9.27;7.47;;;15.50;99.90;;;;;;5033216;28;20154;-70
2021/07/23 05:34:38;;;;;;;11.90;7.23;;;15.50;99.90;;;;;;5033141;28;20201;-70
2021/07/23 05:37:03;;;;;;;9.37;7.60;;;15.60;99.90;;;;;;5015058;28;20545;-70
2021/07/23 05:39:29;;;;;;;9.67;8.67;;;15.60;99.90;;;;;;5003744;28;20707;-70
2021/07/23 05:41:54;;;;;;;9.73;8.23;;;15.70;99.90;;;;;;5000666;28;20552;-70
2021/07/23 05:44:20;;;;;;;9.70;8.37;;;15.70;99.90;;;;;;5001962;28;20182;-70
2021/07/23 05:46:45;;;;;;;9.17;7.33;;;15.80;99.90;;;;;;5007271;28;20327;-70
2021/07/23 05:49:11;;;;;;;8.90;7.60;;;15.80;99.90;;;;;;5013439;28;20629;-70
2021/07/23 05:51:36;;;;;;;10.77;7.87;;;15.90;99.90;;;;;;5013753;28;20193;-70
2021/07/23 05:54:02;;;;;;;10.67;7.60;;;16.00;99.90;;;;;;5014797;28;20686;-70
2021/07/23 05:56:27;;;;;;;8.97;8.03;;;16.00;99.90;;;;;;5013003;28;20169;-70
2021/07/23 05:58:53;;;;;;;12.10;8.30;;;16.00;99.90;;;;;;5012890;28;20189;-70
2021/07/23 06:01:18;;;;;;;11.20;7.93;;;16.10;99.90;;;;;;5004787;28;20182;-70
2021/07/23 06:03:44;;;;;;;9.87;7.70;;;16.20;99.90;;;;;;4993558;28;20505;-70
2021/07/23 06:06:10;;;;;;;9.40;6.67;;;16.20;99.90;;;;;;4991523;28;20788;-70
2021/07/23 06:08:35;;;;;;;11.60;8.50;;;16.30;99.90;;;;;;4992338;28;20405;-70
2021/07/23 06:11:05;;;;;;;7.63;6.70;;;16.40;99.90;;;;;;5005955;28;20203;-70
2021/07/23 06:13:31;;;;;;;10.60;7.73;;;16.40;99.90;;;;;;4997009;28;20198;-70
2021/07/23 06:15:57;;;;;;;9.03;7.23;;;16.50;99.90;;;;;;5002399;28;20415;-70
2021/07/23 06:18:22;;;;;;;9.37;7.83;;;16.60;99.90;;;;;;5003757;28;20429;-69
2021/07/23 06:20:48;;;;;;;11.37;7.87;;;16.70;99.90;;;;;;4992701;28;20578;-69
2021/07/23 06:23:13;;;;;;;10.43;8.20;;;16.70;99.90;;;;;;5006120;28;20610;-70
2021/07/23 06:25:39;;;;;;;7.77;6.90;;;16.80;99.90;;;;;;5003915;28;20192;-70
2021/07/23 06:28:05;;;;;;;8.50;7.60;;;16.90;99.90;;;;;;5008197;28;20192;-70
2021/07/23 06:30:31;;;;;;;9.37;7.47;;;16.90;99.90;;;;;;4999050;28;20696;-70
2021/07/23 06:32:56;;;;;;;9.10;7.50;;;17.00;99.90;;;;;;5001561;28;20449;-70
2021/07/23 06:35:22;;;;;;;11.30;7.13;;;17.00;99.90;;;;;;4993085;28;20159;-70
2021/07/23 06:37:47;;;;;;;10.03;9.03;;;17.10;99.90;;;;;;4997144;28;20193;-70
2021/07/23 06:40:13;;;;;;;8.97;8.00;;;17.20;99.90;;;;;;5012898;28;20236;-70
2021/07/23 06:42:39;;;;;;;8.23;7.10;;;17.20;99.90;;;;;;4995726;28;20169;-70
2021/07/23 06:45:04;;;;;;;9.73;8.13;;;17.30;99.90;;;;;;5007931;28;20638;-70
2021/07/23 06:47:30;;;;;;;7.93;6.60;;;17.40;99.90;;;;;;5010122;28;20200;-70
2021/07/23 06:49:56;;;;;;;7.77;6.97;;;17.40;99.90;;;;;;5006153;28;20424;-70
2021/07/23 06:52:21;;;;;;;8.27;6.90;;;17.50;99.90;;;;;;5003021;28;20245;-70
2021/07/23 06:54:48;;;;;;;9.27;7.00;;;17.60;99.90;;;;;;4994970;28;20780;-70
2021/07/23 06:57:14;;;;;;;10.60;6.90;;;17.70;99.90;;;;;;5005719;28;20174;-70
2021/07/23 06:59:40;;;;;;;10.20;7.00;;;17.70;99.90;;;;;;5006951;28;20448;-70
2021/07/23 07:02:05;;;;;;;9.27;6.90;;;17.80;99.90;;;;;;5007716;28;20187;-70
2021/07/23 07:04:31;;;;;;;8.10;6.80;;;17.90;99.90;;;;;;5000385;28;20190;-70
2021/07/23 07:06:58;;;;;;;6.90;6.03;;;18.00;99.90;;;;;;4995094;28;20213;-70
2021/07/23 07:09:25;;;;;;;10.63;6.93;;;18.10;99.90;;;;;;5012335;28;20192;-70
2021/07/23 07:11:51;;;;;;;7.27;6.03;;;18.10;99.90;;;;;;5008558;28;20550;-70
2021/07/23 07:14:17;;;;;;;7.70;7.00;;;18.20;99.90;;;;;;4990406;28;20441;-70
2021/07/23 07:16:43;;;;;;;7.50;6.50;;;18.30;99.90;;;;;;4990801;28;20398;-70
2021/07/23 07:19:08;;;;;;;9.73;5.70;;;18.50;99.90;;;;;;5007595;28;20174;-70
2021/07/23 07:21:34;;;;;;;6.70;6.00;;;18.60;99.90;;;;;;5009596;28;20471;-70
2021/07/23 07:24:00;;;;;;;7.03;5.67;;;18.70;99.90;;;;;;5005810;28;20586;-70
2021/07/23 07:26:27;;;;;;;7.77;5.80;;;18.90;99.90;;;;;;4992203;28;20147;-70
2021/07/23 07:28:53;;;;;;;7.03;5.90;;;19.00;99.90;;;;;;4992470;28;20166;-70
2021/07/23 07:31:18;;;;;;;8.97;5.80;;;19.20;99.90;;;;;;4997616;28;20420;-70
2021/07/23 07:33:44;;;;;;;9.30;5.70;;;19.40;99.90;;;;;;5002548;28;20686;-70
2021/07/23 07:36:09;;;;;;;6.63;5.93;;;19.60;99.90;;;;;;5016747;28;20173;-70
2021/07/23 07:38:36;;;;;;;7.70;5.40;;;20.00;99.90;;;;;;5010187;28;20638;-70
2021/07/23 07:41:03;;;;;;;5.53;5.00;;;20.70;99.90;;;;;;5011703;28;20172;-70
2021/07/23 07:43:28;;;;;;;6.80;5.10;;;21.80;99.90;;;;;;5006699;28;20413;-70
2021/07/23 07:45:55;;;;;;;6.37;4.90;;;22.90;99.90;;;;;;4994436;28;20425;-70
2021/07/23 07:48:21;;;;;;;8.97;4.67;;;23.90;99.90;;;;;;4995173;28;20179;-71
2021/07/23 07:50:47;;;;;;;5.53;4.63;;;25.10;97.90;;;;;;4995558;28;20405;-71
2021/07/23 07:53:13;;;;;;;4.97;4.00;;;26.20;95.00;;;;;;5006520;28;20467;-71
2021/07/23 07:55:39;;;;;;;6.60;4.80;;;27.10;91.20;;;;;;5006778;28;20166;-71
2021/07/23 07:58:04;;;;;;;6.93;3.90;;;27.80;85.50;;;;;;4995636;28;20213;-71
2021/07/23 08:00:30;;;;;;;5.33;4.40;;;28.30;81.30;;;;;;5003846;28;20448;-71
2021/07/23 08:02:56;;;;;;;5.73;3.90;;;29.10;77.20;;;;;;5012402;28;20204;-71
2021/07/23 08:05:22;;;;;;;4.70;4.20;;;29.60;73.00;;;;;;5005957;28;20416;-71
2021/07/23 08:07:48;;;;;;;6.17;4.50;;;29.90;68.60;;;;;;5015087;28;20224;-71
2021/07/23 08:10:15;;;;;;;5.77;4.50;;;30.40;65.90;;;;;;5013978;28;20181;-71
2021/07/23 08:12:41;;;;;;;3.90;3.50;;;30.70;61.30;;;;;;5032428;28;20443;-71
2021/07/23 08:15:07;;;;;;;4.70;4.20;;;30.90;59.20;;;;;;5017721;28;20455;-71
2021/07/23 08:17:32;;;;;;;11.33;3.90;;;31.00;58.30;;;;;;5015109;28;20161;-72
2021/07/23 08:20:00;;;;;;;4.67;4.27;;;31.00;57.60;;;;;;5003551;28;20421;-72
2021/07/23 08:22:26;;;;;;;5.20;4.70;;;31.30;57.50;;;;;;5009013;28;20173;-72
2021/07/23 08:24:52;;;;;;;3.80;3.50;;;31.50;55.10;;;;;;5005928;28;20921;-72
2021/07/23 08:27:18;;;;;;;3.70;3.40;;;31.90;55.40;;;;;;5021188;28;20180;-72
2021/07/23 08:29:45;;;;;;;4.37;3.77;;;32.70;54.10;;;;;;5016988;28;20177;-72
2021/07/23 08:32:12;;;;;;;4.53;4.10;;;33.40;52.10;;;;;;5009679;28;20447;-73
2021/07/23 08:34:39;;;;;;;5.20;3.57;;;33.90;49.20;;;;;;5011367;28;20490;-72
2021/07/23 08:37:05;;;;;;;4.20;3.80;;;34.30;48.50;;;;;;5014863;28;20898;-73
2021/07/23 08:39:31;;;;;;;4.00;3.70;;;34.80;47.30;;;;;;5013886;28;20409;-73
2021/07/23 08:41:57;;;;;;;4.53;4.13;;;35.40;45.80;;;;;;5013384;28;20913;-73
2021/07/23 08:44:25;;;;;;;5.03;4.63;;;35.80;44.20;;;;;;5015685;28;20212;-72
2021/07/23 08:46:51;;;;;;;4.87;4.47;;;36.30;43.90;;;;;;5004818;28;20611;-72
2021/07/23 08:49:16;;;;;;;4.07;3.67;;;36.80;42.90;;;;;;5003840;28;20420;-72
2021/07/23 08:51:49;;;;;;;5.40;4.87;;;37.20;41.10;;;;;;5000556;28;20261;-72
2021/07/23 08:54:15;;;;;;;4.77;4.37;;;37.30;39.50;;;;;;5013602;28;20192;-72
2021/07/23 08:56:45;;;;;;;4.10;3.80;;;37.50;39.00;;;;;;5012094;28;20800;-72
2021/07/23 08:59:11;;;;;;;4.33;3.93;;;37.90;38.80;;;;;;5013622;28;20201;-72
2021/07/23 09:01:58;;;;;;;4.93;3.87;;;38.50;37.90;;;;;;5011870;28;20428;-73
2021/07/23 09:04:29;;;;;;;4.27;3.87;;;39.10;35.70;;;;;;5013075;28;20161;-73
2021/07/23 09:10:03;;;;;;;3.93;3.53;;;39.70;34.10;;;;;;5055807;28;20540;-71
2021/07/23 09:12:39;;;;;;;4.30;3.90;;;39.50;33.80;;;;;;5049895;28;20413;-71
2021/07/23 09:17:54;;;;;;;3.70;3.30;;;39.20;35.00;;;;;;5065557;28;20535;-71
2021/07/23 09:20:23;;;;;;;5.47;3.70;;;39.00;35.60;;;;;;5035305;28;20423;-71
2021/07/23 09:22:51;;;;;;;4.00;3.53;;;38.70;35.30;;;;;;5037751;28;20422;-71
2021/07/23 09:25:47;;;;;;;4.33;3.93;;;38.40;36.20;;;;;;5051200;28;20441;-71
2021/07/23 09:31:00;;;;;;;4.97;4.53;;;38.20;36.20;;;;;;5088760;27;20542;-71
2021/07/23 09:33:28;;;;;;;7.43;4.50;;;37.20;37.70;;;;;;5087710;28;20393;-71
2021/07/23 09:35:56;;;;;;;4.00;3.60;;;36.60;37.70;;;;;;5070728;28;20516;-71
2021/07/23 09:38:23;;;;;;;5.00;4.60;;;36.30;39.30;;;;;;5077107;28;20413;-70
2021/07/23 09:40:49;;;;;;;5.10;4.70;;;36.10;39.40;;;;;;5075806;28;20428;-70
2021/07/23 09:46:23;;;;;;;6.13;4.83;;;35.20;40.10;;;;;;5069641;28;20504;-72
2021/07/23 09:48:49;;;;;;;5.90;4.80;;;34.80;41.00;;;;;;5057951;28;20475;-72
2021/07/23 09:51:15;;;;;;;8.17;6.77;;;34.20;42.10;;;;;;5044344;28;20777;-72
2021/07/23 09:53:41;;;;;;;6.23;5.53;;;33.90;42.60;;;;;;5029893;28;20173;-72
2021/07/23 09:56:08;;;;;;;5.40;4.83;;;33.50;43.60;;;;;;5029777;28;20899;-71
2021/07/23 09:58:42;;;;;;;6.20;5.60;;;33.10;44.20;;;;;;5042242;28;20226;-72
2021/07/23 10:01:12;;;;;;;6.00;5.40;;;32.60;44.90;;;;;;5029960;28;20461;-72
2021/07/23 10:03:42;;;;;;;6.37;5.13;;;32.10;45.70;;;;;;5038360;28;20484;-72
2021/07/23 10:06:13;;;;;;;5.43;4.83;;;31.70;46.50;;;;;;5049056;28;20497;-72
2021/07/23 10:08:40;;;;;;;5.47;4.70;;;31.40;46.80;;;;;;5042204;28;20419;-72
2021/07/23 10:11:08;;;;;;;6.00;5.20;;;31.00;47.60;;;;;;5044346;28;20431;-71
2021/07/23 10:13:39;;;;;;;5.17;4.67;;;30.80;48.20;;;;;;5030876;28;20975;-72
2021/07/23 10:16:08;;;;;;;7.23;5.97;;;30.60;48.50;;;;;;5042846;28;20488;-71
2021/07/23 10:18:34;;;;;;;7.27;6.03;;;30.30;49.60;;;;;;5055067;28;20410;-71
2021/07/23 10:21:02;;;;;;;8.60;6.33;;;30.00;49.00;;;;;;5027834;28;20431;-71
2021/07/23 10:23:28;;;;;;;5.27;4.77;;;29.70;50.60;;;;;;5048211;28;20940;-71
2021/07/23 10:25:55;;;;;;;5.57;3.90;;;29.60;51.20;;;;;;5045629;28;20470;-71
2021/07/23 10:34:03;;;;;;;5.03;4.33;;;29.40;51.40;;;;;;5085304;28;21048;-72
2021/07/23 10:47:00;;;;;;;7.67;5.07;;;28.70;52.50;;;;;;5114424;27;20518;-72
2021/07/23 10:52:04;;;;;;;6.17;5.57;;;27.20;55.60;;;;;;5041327;28;20561;-72
2021/07/23 10:54:31;;;;;;;7.23;6.30;;;26.70;57.90;;;;;;5032754;28;20442;-72
2021/07/23 10:59:50;;;;;;;6.37;5.77;;;26.40;58.60;;;;;;5069773;28;20549;-71
2021/07/23 11:05:13;;;;;;;7.40;5.70;;;25.90;58.90;;;;;;5128454;27;20546;-71
2021/07/23 11:07:38;;;;;;;6.60;5.73;;;25.70;60.00;;;;;;5131243;27;20791;-71
2021/07/23 11:10:08;;;;;;;9.17;5.90;;;25.60;60.90;;;;;;5114140;28;20473;-71
2021/07/23 11:12:40;;;;;;;8.47;6.90;;;25.50;60.90;;;;;;5130749;27;20196;-71
2021/07/23 11:15:08;;;;;;;7.30;5.53;;;25.30;61.30;;;;;;5130576;28;20456;-71
2021/07/23 11:17:45;;;;;;;7.20;5.77;;;25.20;62.60;;;;;;5113088;28;20457;-71
2021/07/23 11:20:11;;;;;;;6.63;5.93;;;25.00;63.50;;;;;;5121050;28;20419;-71
2021/07/23 11:22:37;;;;;;;8.83;7.20;;;24.90;64.40;;;;;;5129668;28;20411;-71
2021/07/23 11:25:06;;;;;;;7.93;6.30;;;24.80;65.40;;;;;;5134066;27;20398;-71
2021/07/23 11:27:34;;;;;;;7.53;5.97;;;24.70;65.80;;;;;;5136267;27;20252;-71
2021/07/23 11:30:15;;;;;;;7.13;5.87;;;24.60;66.10;;;;;;5121181;27;20416;-71
2021/07/23 11:32:50;;;;;;;6.67;5.00;;;24.50;66.30;;;;;;5112330;28;20455;-71
2021/07/23 11:35:16;;;;;;;10.80;6.10;;;24.40;66.60;;;;;;5124373;28;20403;-71
2021/07/23 11:37:41;;;;;;;8.03;5.03;;;24.40;67.50;;;;;;5109836;28;20388;-71
2021/07/23 11:40:08;;;;;;;7.93;4.63;;;24.40;67.40;;;;;;5115673;28;20439;-71
2021/07/23 11:42:44;;;;;;;8.60;6.30;;;24.40;67.80;;;;;;5109895;28;20165;-71
2021/07/23 11:45:12;;;;;;;6.37;5.50;;;24.40;66.70;;;;;;5121072;27;20422;-71
2021/07/23 11:47:43;;;;;;;8.43;6.10;;;24.40;68.30;;;;;;5130451;28;20395;-71
2021/07/23 11:50:13;;;;;;;8.07;6.50;;;24.30;67.30;;;;;;5120420;28;20817;-71
2021/07/23 11:52:39;;;;;;;6.50;5.30;;;24.20;67.60;;;;;;5124370;28;20499;-71
2021/07/23 11:55:07;;;;;;;6.87;6.17;;;24.10;67.70;;;;;;5121161;28;20465;-71
2021/07/23 11:57:41;;;;;;;8.50;6.20;;;24.10;67.90;;;;;;5118373;28;20405;-71
2021/07/23 12:00:24;;;;;;;7.50;6.30;;;24.00;68.80;;;;;;5116519;28;20444;-71
2021/07/23 12:02:52;;;;;;;7.10;6.20;;;23.90;69.50;;;;;;5117833;28;20466;-71
2021/07/23 12:05:18;;;;;;;6.53;5.80;;;23.90;71.60;;;;;;5130725;28;20932;-71
2021/07/23 12:07:56;;;;;;;7.50;6.37;;;23.90;70.50;;;;;;5122515;28;20911;-71
2021/07/23 12:10:23;;;;;;;7.87;5.80;;;23.90;70.40;;;;;;5122071;28;20459;-71
2021/07/23 12:12:48;;;;;;;9.27;6.33;;;23.90;70.10;;;;;;5108824;28;20483;-71
2021/07/23 12:15:14;;;;;;;11.23;7.83;;;23.90;71.20;;;;;;5101268;28;20428;-71
2021/07/23 12:17:43;;;;;;;10.37;6.60;;;23.80;70.00;;;;;;5095782;28;20612;-71
2021/07/23 12:20:09;;;;;;;5.90;5.33;;;23.80;72.30;;;;;;5103811;28;20643;-70
2021/07/23 12:22:35;;;;;;;8.70;6.27;;;23.70;73.80;;;;;;5095170;28;20493;-71
2021/07/23 12:25:18;;;;;;;8.57;6.90;;;23.80;74.20;;;;;;5096444;28;20890;-71
2021/07/23 12:27:44;;;;;;;6.77;5.60;;;23.80;74.20;;;;;;5095458;28;20390;-71
2021/07/23 12:30:11;;;;;;;8.30;6.93;;;23.70;74.10;;;;;;5100133;28;20856;-71
2021/07/23 12:32:37;;;;;;;8.37;5.80;;;23.70;74.60;;;;;;5115485;28;20396;-71
2021/07/23 12:35:02;;;;;;;7.27;5.97;;;23.70;74.60;;;;;;5115607;28;20384;-70
2021/07/23 12:37:28;;;;;;;8.27;6.33;;;23.70;74.50;;;;;;5116029;28;20178;-71
2021/07/23 12:39:58;;;;;;;8.90;5.73;;;23.70;74.40;;;;;;5114781;28;20306;-71
2021/07/23 12:42:26;;;;;;;6.00;5.40;;;23.60;75.10;;;;;;5099653;28;20413;-70
2021/07/23 12:44:52;;;;;;;7.10;6.40;;;23.60;76.80;;;;;;5094986;28;20945;-70
2021/07/23 12:47:20;;;;;;;6.40;5.40;;;23.50;77.20;;;;;;5094935;28;21132;-70
2021/07/23 12:49:48;;;;;;;8.07;6.33;;;23.60;77.20;;;;;;5095960;28;20404;-70
2021/07/23 12:52:14;;;;;;;6.73;5.53;;;23.60;75.60;;;;;;5115813;28;20422;-70
2021/07/23 12:54:42;;;;;;;7.73;6.70;;;23.50;76.20;;;;;;5115068;28;20396;-71
2021/07/23 13:00:23;;;;;;;8.87;6.17;;;23.50;76.90;;;;;;5075298;28;20536;-71
2021/07/23 13:02:50;;;;;;;6.87;5.60;;;23.50;77.30;;;;;;5088626;28;20491;-71
2021/07/23 13:05:15;;;;;;;8.97;7.17;;;23.50;77.10;;;;;;5089565;28;20878;-71
2021/07/23 13:07:42;;;;;;;10.27;6.43;;;23.50;78.30;;;;;;5089303;28;20454;-71
2021/07/23 13:10:15;;;;;;;6.97;6.27;;;23.50;78.80;;;;;;5089955;28;20616;-71
2021/07/23 13:12:41;;;;;;;7.80;6.93;;;23.50;78.40;;;;;;5069820;28;20402;-71
2021/07/23 13:15:07;;;;;;;10.20;8.30;;;23.50;78.20;;;;;;5079703;28;20448;-71
2021/07/23 13:17:32;;;;;;;7.27;5.80;;;23.50;77.60;;;;;;5070220;28;20640;-71
2021/07/23 13:19:58;;;;;;;7.03;6.07;;;23.40;78.30;;;;;;5070041;28;20437;-71
2021/07/23 13:22:24;;;;;;;7.73;6.77;;;23.40;78.70;;;;;;5087850;28;20656;-71